ADDS METAR Data INFO
IDs: Format: Raw Decoded Include TAF

Data at: 2051 UTC 24 Jun 2018

KSAT 241951Z 15014G23KT 10SM SCT055 BKN250 36/20 A2986 RMK AO2 SLP092 T03560200
KSAT 241851Z 13019G25KT 10SM SCT055 BKN250 34/19 A2987 RMK AO2 SLP094 T03440194
KSAT 241751Z 17011KT 10SM FEW045 SCT250 34/20 A2987 RMK AO2 SLP095 T03440200 10344 20250 55002
KSAT 241651Z 17014G21KT 10SM FEW040 BKN250 33/20 A2987 RMK AO2 SLP093 T03330200
KSAT 241551Z 18010KT 10SM SCT029 BKN250 31/21 A2987 RMK AO2 SLP096 T03110211
KSAT 241451Z 18012G17KT 10SM SCT024 BKN250 28/21 A2988 RMK AO2 SLP098 T02780211 53004
KSAT 241351Z 17014G21KT 10SM BKN015 BKN250 27/22 A2987 RMK AO2 SLP096 T02720222
KSAT 241305Z 16011KT 8SM BKN015 BKN250 26/22 A2987 RMK AO2 BKN015 V SCT T02610222
KSAT 241251Z 17010KT 8SM FEW013 SCT250 26/22 A2986 RMK AO2 SLP093 T02560222
KSAT 241151Z COR 15010KT 10SM SCT021 SCT250 25/22 A2986 RMK AO2 SLP093 T02500222 10267 20250 57006
KSAT 241051Z 16009KT 10SM SCT017 BKN036 26/22 A2987 RMK AO2 SLP094 T02560222
KSAT 240951Z 14008KT 10SM SCT017 BKN038 26/22 A2988 RMK AO2 SLP097 T02610222
KSAT 240851Z 16009KT 10SM SCT019 OVC038 26/22 A2988 RMK AO2 SLP099 T02610222 50004
KSAT 240841Z 15011KT 10SM SCT019 OVC038 26/22 A2989 RMK AO2 T02610222
KSAT 240751Z 15010G16KT 10SM OVC020 26/22 A2990 RMK AO2 SLP103 T02610222
KSAT 240651Z 16012KT 10SM BKN017 OVC022 26/23 A2987 RMK AO2 SLP094 T02610228
KSAT 240551Z 15015G20KT 10SM BKN017 OVC030 27/23 A2987 RMK AO2 SLP094 T02670228 10350 20267 403720239 51029
KSAT 240451Z 16016KT 10SM OVC019 28/23 A2986 RMK AO2 SLP092 T02780233
KSAT 240351Z 14014KT 10SM BKN017 OVC022 28/24 A2982 RMK AO2 SLP078 T02830239
KSAT 240251Z 14019KT 10SM BKN024 29/24 A2978 RMK AO2 SLP065 T02890239 53012
KSAT 240233Z 14014KT 10SM BKN027 29/24 A2978 RMK AO2 T02940239
KSAT 240151Z 13018KT 10SM BKN036 BKN250 31/23 A2977 RMK AO2 SLP060 T03060233
KSAT 240051Z 13018G21KT 10SM FEW055 FEW250 33/23 A2975 RMK AO2 SLP056 T03280228
KSAT 232351Z 14016KT 10SM FEW055 FEW250 35/21 A2975 RMK AO2 SLP053 T03500211 10372 20339 56009
KSAT 232251Z 15018G22KT 10SM FEW055 FEW250 36/21 A2975 RMK AO2 SLP053 T03560211
KSAT 232151Z 15016KT 10SM FEW055 36/21 A2977 RMK AO2 PK WND 13027/2108 SLP058 T03610211
KSAT 232051Z 12016G24KT 10SM FEW055 36/21 A2978 RMK AO2 SLP062 T03560211 56020
KSAT 231951Z 15017G25KT 10SM FEW050 36/21 A2979 RMK AO2 SLP067 T03610211
KSAT 231851Z 14012G23KT 10SM FEW048 36/21 A2981 RMK AO2 SLP075 T03560211
KSAT 231751Z 18012G21KT 10SM FEW045 FEW250 34/21 A2984 RMK AO2 SLP083 T03440211 10344 20239 58009
KSAT 231651Z 15011G18KT 10SM FEW038 FEW250 33/21 A2986 RMK AO2 SLP091 T03280211
KSAT 231551Z 16011KT 10SM FEW025 FEW250 31/21 A2986 RMK AO2 SLP093 T03060211
KSAT 231451Z 18012KT 10SM FEW018 FEW250 28/21 A2986 RMK AO2 SLP093 T02780211 50007
KSAT 231421Z 17016KT 10SM SCT018 27/21 A2987 RMK AO2 T02720211
KSAT 231358Z 17012KT 10SM BKN017 26/21 A2987 RMK AO2 T02610211
KSAT 231351Z 18012KT 10SM BKN014 26/21 A2987 RMK AO2 SLP096 T02610211
KSAT 231251Z 17014KT 10SM BKN013 24/21 A2986 RMK AO2 SLP091 T02440211
KSAT 231151Z 17012KT 10SM BKN010 24/22 A2984 RMK AO2 SLP086 BKN V SCT T02440222 10272 20244 51006
KSAT 231051Z 18010KT 10SM FEW015 FEW040 25/22 A2983 RMK AO2 SLP083 T02500222
KSAT 230951Z 18009KT 10SM FEW015 FEW040 26/22 A2984 RMK AO2 SLP084 T02560217